HARTSFIELD - JACKSON ATLANTA INTL

KATL (ATL)
Atlanta, Georgia
Towered

Vatsim Metar:
KATL 260652Z 15006KT 10SM FEW130 SCT200 SCT250 26/16 A3010 RMK AO2 SLP182 T02560156

No ATC Online

Traffic

Inbound:
Ident
Type
Name
ETA
Phase
N308DE
B737
Gohan Dyer KTFW
Deplaning
SWA9342
B737
Austin Lowe KMSY
Boarding

Outbound:
Ident
Type
Name
Destination
Phase
DLR83
B763
Aaron D'Souza CYYZ
KLAX
Boarding